^^
Station Historical Data
Daily Summary for January 15, 2018 Units:  Metric    English   Both
« Previous Day
Next Day »
Daily Weekly Monthly Yearly Custom
  High: Low: Average:
Temperature: -5.7 °C -7.6 °C -6.9 °C
Dew Point: -7.2 °C -9.3 °C -8.4 °C
Humidity: 91% 87% 89%
Wind Speed: 11.1km/h 0.0km/h 2.5km/h
Wind Gust: 20.4km/h - -
Wind- - SSE
Pressure: 1035.1 hPa 1018.2 hPa -
Precipitation: 0.0 mm    
Historical Graphs
 
 
Tabular Data for January 15, 2018
Time Temperature Dew Point Pressure Wind Wind Speed Wind Gust Humidity Rainfall Rate (Hourly) solar Conditions
00:01 -6.1 °C -7.6 °C 1035.1 hPa SSW 6.8 km/h 13.0 km/h 89% 0.0 mm WeatherDisplay:10.37 W/m2 FEW
00:09 -6.2 °C -7.7 °C 1035.1 hPa ESE 1.9 km/h 11.1 km/h 89% 0.0 mm WeatherDisplay:10.37 W/m2 FEW
00:14 -6.2 °C -7.9 °C 1035.1 hPa ESE 4.7 km/h 11.3 km/h 88% 0.0 mm WeatherDisplay:10.37 W/m2 FEW
00:21 -6.2 °C -7.7 °C 1035.1 hPa SE 0.3 km/h 5.6 km/h 89% 0.0 mm WeatherDisplay:10.37 W/m2 FEW
00:26 -6.3 °C -7.9 °C 1035.1 hPa Calm   3.7 km/h 88% 0.0 mm WeatherDisplay:10.37 W/m2 FEW
00:38 -6.3 °C -8.0 °C 1035.1 hPa SE 4.2 km/h 5.6 km/h 88% 0.0 mm WeatherDisplay:10.37 W/m2 FEW
00:43 -6.3 °C -8.0 °C 1035.1 hPa SE 2.7 km/h 9.3 km/h 88% 0.0 mm WeatherDisplay:10.37 W/m2 FEW
00:48 -6.4 °C -8.1 °C 1035.1 hPa SE 4.0 km/h 9.3 km/h 88% 0.0 mm WeatherDisplay:10.37 W/m2 FEW
00:53 -6.3 °C -7.8 °C 1035.1 hPa South 6.1 km/h 6.4 km/h 89% 0.0 mm WeatherDisplay:10.37 W/m2 FEW
00:58 -6.4 °C -7.9 °C 1035.1 hPa SSE 1.0 km/h 5.6 km/h 89% 0.0 mm WeatherDisplay:10.37 W/m2 FEW
01:08 -6.4 °C -7.9 °C 1034.8 hPa SE 2.6 km/h 5.6 km/h 89% 0.0 mm WeatherDisplay:10.37 W/m2 FEW
01:13 -6.4 °C -7.9 °C 1034.8 hPa ESE 0.3 km/h 4.8 km/h 89% 0.0 mm WeatherDisplay:10.37 W/m2 FEW
01:19 -6.4 °C -7.9 °C 1034.8 hPa SSE 3.9 km/h 6.4 km/h 89% 0.0 mm WeatherDisplay:10.37 W/m2 FEW
01:27 -6.4 °C -7.9 °C 1034.4 hPa SE 4.3 km/h 9.3 km/h 89% 0.0 mm WeatherDisplay:10.37 W/m2 FEW
01:34 -6.4 °C -7.9 °C 1034.4 hPa SE 3.1 km/h 7.4 km/h 89% 0.0 mm WeatherDisplay:10.37 W/m2 FEW
01:45 -6.5 °C -8.0 °C 1034.4 hPa SSE 4.8 km/h 11.1 km/h 89% 0.0 mm WeatherDisplay:10.37 W/m2 FEW
01:53 -6.5 °C -8.2 °C 1034.4 hPa ESE 4.3 km/h 4.8 km/h 88% 0.0 mm WeatherDisplay:10.37 W/m2 FEW
02:00 -6.6 °C -8.2 °C 1034.4 hPa South 2.7 km/h 9.3 km/h 88% 0.0 mm WeatherDisplay:10.37 W/m2 FEW
02:05 -6.6 °C -8.2 °C 1034.4 hPa Calm   3.7 km/h 88% 0.0 mm WeatherDisplay:10.37 W/m2 FEW
02:10 -6.5 °C -8.0 °C 1034.4 hPa WSW 0.5 km/h 9.3 km/h 89% 0.0 mm WeatherDisplay:10.37 W/m2 FEW
02:17 -6.5 °C -8.2 °C 1034.4 hPa ESE 0.6 km/h 5.6 km/h 88% 0.0 mm WeatherDisplay:10.37 W/m2 FEW
02:22 -6.5 °C -8.2 °C 1034.4 hPa Calm     88% 0.0 mm WeatherDisplay:10.37 W/m2 FEW
02:27 -6.5 °C -8.2 °C 1034.4 hPa Calm     88% 0.0 mm WeatherDisplay:10.37 W/m2 FEW
02:32 -6.5 °C -8.0 °C 1034.1 hPa ESE 1.1 km/h 5.6 km/h 89% 0.0 mm WeatherDisplay:10.37 W/m2 FEW
02:37 -6.4 °C -7.9 °C 1034.1 hPa ESE 0.6 km/h 5.6 km/h 89% 0.0 mm WeatherDisplay:10.37 W/m2 FEW
02:42 -6.4 °C -7.9 °C 1034.1 hPa SSE 3.2 km/h 13.0 km/h 89% 0.0 mm WeatherDisplay:10.37 W/m2 FEW
02:47 -6.4 °C -7.9 °C 1034.1 hPa Calm   9.3 km/h 89% 0.0 mm WeatherDisplay:10.37 W/m2 FEW
02:52 -6.4 °C -8.1 °C 1034.1 hPa SSE 7.4 km/h 9.7 km/h 88% 0.0 mm WeatherDisplay:10.37 W/m2 FEW
02:57 -6.4 °C -8.1 °C 1034.1 hPa ESE 3.5 km/h 6.4 km/h 88% 0.0 mm WeatherDisplay:10.37 W/m2 FEW
03:06 -6.5 °C -8.2 °C 1033.7 hPa South 2.7 km/h 8.0 km/h 88% 0.0 mm WeatherDisplay:10.37 W/m2 FEW
03:18 -6.5 °C -8.2 °C 1033.7 hPa South 0.3 km/h 1.6 km/h 88% 0.0 mm WeatherDisplay:10.37 W/m2 FEW
03:24 -6.4 °C -7.9 °C 1033.7 hPa South 1.6 km/h 4.8 km/h 89% 0.0 mm WeatherDisplay:10.37 W/m2 FEW
03:29 -6.4 °C -7.9 °C 1033.7 hPa SSE 1.8 km/h 8.0 km/h 89% 0.0 mm WeatherDisplay:10.37 W/m2 FEW
03:34 -6.4 °C -8.1 °C 1033.7 hPa South 1.4 km/h 5.6 km/h 88% 0.0 mm WeatherDisplay:10.37 W/m2 FEW
03:40 -6.5 °C -8.2 °C 1033.7 hPa Calm     88% 0.0 mm WeatherDisplay:10.37 W/m2 FEW
03:45 -6.5 °C -8.2 °C 1033.7 hPa SSE 4.2 km/h 11.1 km/h 88% 0.0 mm WeatherDisplay:10.37 W/m2 FEW
03:50 -6.5 °C -8.2 °C 1033.7 hPa Calm     88% 0.0 mm WeatherDisplay:10.37 W/m2 FEW
03:55 -6.6 °C -8.2 °C 1033.7 hPa SE 0.6 km/h 7.4 km/h 88% 0.0 mm WeatherDisplay:10.37 W/m2 FEW
04:00 -6.5 °C -8.2 °C 1033.4 hPa SSW 1.1 km/h 3.7 km/h 88% 0.0 mm WeatherDisplay:10.37 W/m2 FEW
04:05 -6.5 °C -8.2 °C 1033.4 hPa SSE 1.3 km/h 9.3 km/h 88% 0.0 mm WeatherDisplay:10.37 W/m2 FEW
04:10 -6.5 °C -8.2 °C 1033.4 hPa South 5.0 km/h 7.4 km/h 88% 0.0 mm WeatherDisplay:10.37 W/m2 FEW
04:15 -6.6 °C -8.2 °C 1033.4 hPa SE 2.3 km/h 5.6 km/h 88% 0.0 mm WeatherDisplay:10.37 W/m2 FEW
04:22 -6.6 °C -8.2 °C 1033.4 hPa SSE 1.1 km/h 9.3 km/h 88% 0.0 mm WeatherDisplay:10.37 W/m2 FEW
04:27 -6.6 °C -8.2 °C 1033.4 hPa South 2.4 km/h 7.4 km/h 88% 0.0 mm WeatherDisplay:10.37 W/m2 FEW
04:32 -6.6 °C -8.2 °C 1033.1 hPa SSE 3.4 km/h 5.6 km/h 88% 0.0 mm WeatherDisplay:10.37 W/m2 FEW
04:40 -6.6 °C -8.2 °C 1033.1 hPa Calm   5.6 km/h 88% 0.0 mm WeatherDisplay:10.37 W/m2 FEW
04:45 -6.6 °C -8.2 °C 1033.1 hPa Calm     88% 0.0 mm WeatherDisplay:10.37 W/m2 FEW
04:50 -6.5 °C -8.2 °C 1033.1 hPa SSE 1.4 km/h 5.6 km/h 88% 0.0 mm WeatherDisplay:10.37 W/m2 FEW
04:55 -6.5 °C -8.2 °C 1033.1 hPa Calm     88% 0.0 mm WeatherDisplay:10.37 W/m2 FEW
05:00 -6.5 °C -8.2 °C 1032.7 hPa Calm     88% 0.0 mm WeatherDisplay:10.37 W/m2 FEW
05:05 -6.5 °C -8.0 °C 1032.7 hPa SE 2.1 km/h 7.4 km/h 89% 0.0 mm WeatherDisplay:10.37 W/m2 FEW
05:20 -6.6 °C -8.2 °C 1032.4 hPa Calm     88% 0.0 mm WeatherDisplay:10.37 W/m2 FEW
05:25 -6.6 °C -8.1 °C 1032.4 hPa Calm   3.2 km/h 89% 0.0 mm WeatherDisplay:10.37 W/m2 FEW
05:35 -6.6 °C -8.1 °C 1032.4 hPa SSE 1.1 km/h 5.6 km/h 89% 0.0 mm WeatherDisplay:10.37 W/m2 FEW
05:40 -6.6 °C -8.1 °C 1032.1 hPa ESE 1.1 km/h 3.7 km/h 89% 0.0 mm WeatherDisplay:10.37 W/m2 FEW
05:46 -6.5 °C -8.0 °C 1032.1 hPa East 2.3 km/h 5.6 km/h 89% 0.0 mm WeatherDisplay:10.37 W/m2 FEW
05:52 -6.5 °C -8.0 °C 1032.1 hPa SE 3.7 km/h 11.1 km/h 89% 0.0 mm WeatherDisplay:10.37 W/m2 FEW
06:00 -6.6 °C -8.1 °C 1031.7 hPa East 0.6 km/h 5.6 km/h 89% 0.0 mm WeatherDisplay:10.37 W/m2 FEW
06:05 -6.6 °C -8.1 °C 1031.7 hPa Calm   5.6 km/h 89% 0.0 mm WeatherDisplay:10.37 W/m2 FEW
06:10 -6.6 °C -8.1 °C 1031.7 hPa Calm     89% 0.0 mm WeatherDisplay:10.37 W/m2 FEW
06:15 -6.5 °C -8.0 °C 1031.7 hPa Calm     89% 0.0 mm WeatherDisplay:10.37 W/m2 FEW
06:20 -6.4 °C -7.9 °C 1031.7 hPa Calm   3.7 km/h 89% 0.0 mm WeatherDisplay:10.37 W/m2 FEW
06:25 -6.4 °C -7.9 °C 1031.7 hPa ESE 1.9 km/h 5.6 km/h 89% 0.0 mm WeatherDisplay:10.37 W/m2 FEW
06:30 -6.4 °C -7.9 °C 1031.7 hPa ESE 5.1 km/h 5.6 km/h 89% 0.0 mm WeatherDisplay:10.37 W/m2 FEW
06:35 -6.4 °C -7.9 °C 1031.7 hPa ESE 3.1 km/h 5.6 km/h 89% 0.0 mm WeatherDisplay:10.37 W/m2 FEW
06:40 -6.4 °C -7.9 °C 1031.7 hPa SE 3.9 km/h 8.0 km/h 89% 0.0 mm WeatherDisplay:10.37 W/m2 FEW
06:45 -6.4 °C -7.9 °C 1031.7 hPa SE 3.1 km/h 5.6 km/h 89% 0.0 mm WeatherDisplay:10.37 W/m2 FEW
06:50 -6.3 °C -7.8 °C 1031.4 hPa SSE 1.9 km/h 5.6 km/h 89% 0.0 mm WeatherDisplay:10.37 W/m2 FEW
06:55 -6.3 °C -7.8 °C 1031.4 hPa South 3.5 km/h 7.4 km/h 89% 0.0 mm WeatherDisplay:10.37 W/m2 FEW
07:00 -6.2 °C -7.7 °C 1031.4 hPa SE 1.3 km/h 11.1 km/h 89% 0.0 mm WeatherDisplay:10.37 W/m2 FEW
07:07 -6.2 °C -7.7 °C 1031.0 hPa SE 3.2 km/h 13.0 km/h 89% 0.0 mm WeatherDisplay:10.37 W/m2 FEW
07:12 -6.1 °C -7.6 °C 1031.0 hPa ESE 1.1 km/h 5.6 km/h 89% 0.0 mm WeatherDisplay:10.37 W/m2 FEW
07:18 -6.1 °C -7.6 °C 1031.0 hPa Calm   3.7 km/h 89% 0.0 mm WeatherDisplay:10.37 W/m2 FEW
07:25 -6.0 °C -7.5 °C 1031.0 hPa Calm   1.9 km/h 89% 0.0 mm WeatherDisplay:10.37 W/m2 FEW
07:30 -5.9 °C -7.4 °C 1031.0 hPa SE 4.3 km/h 9.3 km/h 89% 0.0 mm WeatherDisplay:10.37 W/m2 FEW
07:35 -5.9 °C -7.4 °C 1031.0 hPa ESE 2.6 km/h 9.3 km/h 89% 0.0 mm WeatherDisplay:10.37 W/m2 FEW
07:44 -5.8 °C -7.3 °C 1031.0 hPa SSW 4.2 km/h 13.0 km/h 89% 0.0 mm WeatherDisplay:10.37 W/m2 FEW
07:49 -5.8 °C -7.3 °C 1030.7 hPa SE 0.6 km/h 8.0 km/h 89% 0.0 mm WeatherDisplay:10.37 W/m2 FEW
07:54 -5.8 °C -7.3 °C 1030.7 hPa Calm   9.3 km/h 89% 0.0 mm WeatherDisplay:10.37 W/m2 FEW
08:00 -5.8 °C -7.3 °C 1030.7 hPa ESE 0.3 km/h 5.6 km/h 89% 0.0 mm WeatherDisplay:10.37 W/m2 FEW
08:13 -5.7 °C -7.2 °C 1030.4 hPa ESE 2.6 km/h 7.4 km/h 89% 0.0 mm WeatherDisplay:10.37 W/m2 FEW
08:18 -5.7 °C -7.2 °C 1030.4 hPa Calm     89% 0.0 mm WeatherDisplay:10.37 W/m2 FEW
08:28 -5.7 °C -7.2 °C 1030.4 hPa ESE 4.3 km/h 14.5 km/h 89% 0.0 mm WeatherDisplay:10.37 W/m2 FEW
08:33 -5.7 °C -7.2 °C 1030.4 hPa ESE 2.4 km/h 11.1 km/h 89% 0.0 mm WeatherDisplay:10.37 W/m2 FEW
08:38 -5.7 °C -7.2 °C 1030.4 hPa Calm   5.6 km/h 89% 0.0 mm WeatherDisplay:10.37 W/m2 FEW
08:44 -5.7 °C -7.2 °C 1030.4 hPa South 0.6 km/h 1.9 km/h 89% 0.0 mm WeatherDisplay:10.37 W/m2 FEW
08:51 -5.7 °C -7.2 °C 1030.4 hPa Calm     89% 0.0 mm WeatherDisplay:10.37 W/m2 FEW
08:56 -5.7 °C -7.4 °C 1030.4 hPa South 2.1 km/h 7.4 km/h 88% 0.0 mm WeatherDisplay:10.37 W/m2 FEW
09:04 -5.8 °C -7.5 °C 1030.4 hPa South 1.9 km/h 7.4 km/h 88% 0.0 mm WeatherDisplay:10.37 W/m2 FEW
09:09 -5.9 °C -7.6 °C 1030.4 hPa South 2.3 km/h 7.4 km/h 88% 0.0 mm WeatherDisplay:10.37 W/m2 FEW
09:14 -6.0 °C -7.7 °C 1030.4 hPa SSE 7.6 km/h 14.8 km/h 88% 0.0 mm WeatherDisplay:10.37 W/m2 FEW
09:19 -6.1 °C -7.7 °C 1030.0 hPa South 9.2 km/h 14.8 km/h 88% 0.0 mm WeatherDisplay:10.37 W/m2 FEW
09:24 -6.2 °C -7.8 °C 1030.0 hPa SSE 3.4 km/h 5.6 km/h 88% 0.0 mm WeatherDisplay:10.37 W/m2 FEW
09:29 -6.2 °C -7.7 °C 1030.0 hPa SE 3.1 km/h 17.7 km/h 89% 0.0 mm WeatherDisplay:10.37 W/m2 FEW
09:34 -6.3 °C -7.8 °C 1030.4 hPa South 6.6 km/h 16.7 km/h 89% 0.0 mm WeatherDisplay:10.37 W/m2 FEW
09:39 -6.4 °C -7.9 °C 1030.4 hPa SSW 7.1 km/h 13.0 km/h 89% 0.0 mm WeatherDisplay:10.37 W/m2 FEW
09:47 -6.4 °C -7.9 °C 1030.4 hPa SSE 2.9 km/h 6.4 km/h 89% 0.0 mm WeatherDisplay:10.37 W/m2 FEW
09:52 -6.5 °C -8.0 °C 1030.4 hPa South 4.3 km/h 13.0 km/h 89% 0.0 mm WeatherDisplay:10.37 W/m2 FEW
10:02 -6.6 °C -8.3 °C 1030.4 hPa ESE 2.1 km/h 11.1 km/h 88% 0.0 mm WeatherDisplay:10.37 W/m2 FEW
10:16 -6.7 °C -8.3 °C 1030.0 hPa SSE 4.2 km/h 8.0 km/h 88% 0.0 mm WeatherDisplay:10.37 W/m2 FEW
10:21 -6.7 °C -8.4 °C 1030.0 hPa SSE 2.3 km/h 11.1 km/h 88% 0.0 mm WeatherDisplay:10.37 W/m2 FEW
10:36 -6.7 °C -8.2 °C 1030.0 hPa South 0.3 km/h 18.5 km/h 89% 0.0 mm WeatherDisplay:10.37 W/m2 FEW
10:41 -6.7 °C -8.2 °C 1030.0 hPa SSE 0.2 km/h 9.3 km/h 89% 0.0 mm WeatherDisplay:10.37 W/m2 FEW
10:46 -6.7 °C -8.2 °C 1029.7 hPa Calm     89% 0.0 mm WeatherDisplay:10.37 W/m2 FEW
10:53 -6.8 °C -8.3 °C 1029.7 hPa SSE 0.8 km/h 7.4 km/h 89% 0.0 mm WeatherDisplay:10.37 W/m2 FEW
11:03 -6.7 °C -8.2 °C 1029.7 hPa SSE 3.1 km/h 14.8 km/h 89% 0.0 mm WeatherDisplay:10.37 W/m2 FEW
11:08 -6.7 °C -8.2 °C 1029.7 hPa South 2.6 km/h 9.3 km/h 89% 0.0 mm WeatherDisplay:10.37 W/m2 FEW
11:18 -6.8 °C -8.3 °C 1029.7 hPa SSE 5.0 km/h 14.8 km/h 89% 0.0 mm WeatherDisplay:10.37 W/m2 FEW
11:24 -6.9 °C -8.4 °C 1029.7 hPa ENE 2.4 km/h 5.6 km/h 89% 0.0 mm WeatherDisplay:10.37 W/m2 FEW
11:29 -6.9 °C -8.4 °C 1029.7 hPa South 2.9 km/h 9.3 km/h 89% 0.0 mm WeatherDisplay:10.37 W/m2 FEW
11:39 -6.8 °C -8.3 °C 1029.3 hPa SSW 5.0 km/h 14.8 km/h 89% 0.0 mm WeatherDisplay:10.37 W/m2 FEW
11:44 -6.9 °C -8.4 °C 1029.3 hPa SE 2.3 km/h 5.6 km/h 89% 0.0 mm WeatherDisplay:10.37 W/m2 FEW
11:49 -6.9 °C -8.4 °C 1029.3 hPa SE 2.6 km/h 12.9 km/h 89% 0.0 mm WeatherDisplay:10.37 W/m2 FEW
11:54 -6.9 °C -8.3 °C 1029.3 hPa SW 3.9 km/h 11.1 km/h 90% 0.0 mm WeatherDisplay:10.37 W/m2 FEW
11:59 -6.9 °C -8.4 °C 1029.3 hPa SSE 2.1 km/h 6.4 km/h 89% 0.0 mm WeatherDisplay:10.37 W/m2 FEW
12:04 -6.9 °C -8.3 °C 1029.3 hPa Calm     90% 0.0 mm WeatherDisplay:10.37 W/m2 FEW
12:09 -6.9 °C -8.3 °C 1029.0 hPa South 3.4 km/h 5.6 km/h 90% 0.0 mm WeatherDisplay:10.37 W/m2 FEW
12:17 -6.9 °C -8.3 °C 1029.0 hPa SSE 1.8 km/h 11.1 km/h 90% 0.0 mm WeatherDisplay:10.37 W/m2 FEW
12:22 -6.9 °C -8.3 °C 1029.0 hPa SW 1.8 km/h 5.6 km/h 90% 0.0 mm WeatherDisplay:10.37 W/m2 FEW
12:27 -6.9 °C -8.3 °C 1029.0 hPa SE 6.6 km/h 9.3 km/h 90% 0.0 mm WeatherDisplay:10.37 W/m2 FEW
12:37 -6.9 °C -8.3 °C 1028.7 hPa SSE 4.8 km/h 14.8 km/h 90% 0.0 mm WeatherDisplay:10.37 W/m2 FEW
12:42 -6.9 °C -8.3 °C 1028.7 hPa Calm   5.6 km/h 90% 0.0 mm WeatherDisplay:10.37 W/m2 FEW
12:55 -6.9 °C -8.1 °C 1028.7 hPa Calm   3.7 km/h 91% 0.0 mm WeatherDisplay:10.37 W/m2 FEW
13:01 -6.9 °C -8.1 °C 1028.3 hPa SE 1.6 km/h 6.4 km/h 91% 0.0 mm WeatherDisplay:10.37 W/m2 FEW
13:06 -6.9 °C -8.1 °C 1028.3 hPa SSE 0.6 km/h 9.3 km/h 91% 0.0 mm WeatherDisplay:10.37 W/m2 FEW
13:11 -6.8 °C -8.1 °C 1028.3 hPa South 0.6 km/h 11.1 km/h 91% 0.0 mm WeatherDisplay:10.37 W/m2 FEW
13:16 -6.9 °C -8.1 °C 1028.0 hPa SE 0.6 km/h 20.4 km/h 91% 0.0 mm WeatherDisplay:10.37 W/m2 FEW
13:21 -6.9 °C -8.1 °C 1028.0 hPa ESE 3.2 km/h 14.8 km/h 91% 0.0 mm WeatherDisplay:10.37 W/m2 FEW
13:28 -6.9 °C -8.1 °C 1028.0 hPa South 1.3 km/h 7.4 km/h 91% 0.0 mm WeatherDisplay:10.37 W/m2 FEW
13:33 -6.9 °C -8.2 °C 1028.0 hPa East 0.2 km/h 5.6 km/h 91% 0.0 mm WeatherDisplay:10.37 W/m2 FEW
13:42 -7.0 °C -8.2 °C 1027.7 hPa ESE 4.2 km/h 16.7 km/h 91% 0.0 mm WeatherDisplay:10.37 W/m2 FEW
13:47 -7.1 °C -8.4 °C 1027.7 hPa SW 2.7 km/h 11.1 km/h 90% 0.0 mm WeatherDisplay:10.37 W/m2 FEW
13:52 -7.1 °C -8.4 °C 1027.7 hPa SSE 1.0 km/h 6.4 km/h 90% 0.0 mm WeatherDisplay:10.37 W/m2 FEW
14:02 -7.2 °C -8.5 °C 1027.7 hPa South 3.5 km/h 9.3 km/h 90% 0.0 mm WeatherDisplay:10.37 W/m2 FEW
14:07 -7.2 °C -8.6 °C 1027.7 hPa SE 5.8 km/h 13.0 km/h 90% 0.0 mm WeatherDisplay:10.37 W/m2 FEW
14:12 -7.2 °C -8.7 °C 1027.7 hPa SW 2.4 km/h 5.6 km/h 89% 0.0 mm WeatherDisplay:10.37 W/m2 FEW
14:21 -7.2 °C -8.7 °C 1027.3 hPa SSE 0.8 km/h 3.7 km/h 89% 0.0 mm WeatherDisplay:10.37 W/m2 FEW
14:30 -7.2 °C -8.7 °C 1027.0 hPa ESE 1.8 km/h 4.8 km/h 89% 0.0 mm WeatherDisplay:10.37 W/m2 FEW
14:35 -7.2 °C -8.7 °C 1027.0 hPa South 5.5 km/h 13.0 km/h 89% 0.0 mm WeatherDisplay:10.37 W/m2 FEW
14:40 -7.2 °C -8.7 °C 1027.0 hPa SE 0.6 km/h 5.6 km/h 89% 0.0 mm WeatherDisplay:10.37 W/m2 FEW
14:45 -7.2 °C -8.7 °C 1027.0 hPa SSE 2.7 km/h 7.4 km/h 89% 0.0 mm WeatherDisplay:10.37 W/m2 FEW
14:53 -7.2 °C -8.7 °C 1027.0 hPa SSE 1.9 km/h 7.4 km/h 89% 0.0 mm WeatherDisplay:10.37 W/m2 FEW
15:03 -7.2 °C -8.7 °C 1026.6 hPa South 1.1 km/h 5.6 km/h 89% 0.0 mm WeatherDisplay:10.37 W/m2 FEW
15:08 -7.2 °C -8.7 °C 1026.6 hPa Calm     89% 0.0 mm WeatherDisplay:10.37 W/m2 FEW
15:13 -7.1 °C -8.6 °C 1026.6 hPa SSE 1.9 km/h 5.6 km/h 89% 0.0 mm WeatherDisplay:10.37 W/m2 FEW
15:18 -7.2 °C -8.7 °C 1026.6 hPa SE 0.3 km/h 3.7 km/h 89% 0.0 mm WeatherDisplay:10.37 W/m2 FEW
15:23 -7.2 °C -8.7 °C 1026.3 hPa SE 5.6 km/h 9.3 km/h 89% 0.0 mm WeatherDisplay:10.37 W/m2 FEW
15:28 -7.2 °C -8.7 °C 1026.3 hPa SE 2.4 km/h 7.4 km/h 89% 0.0 mm WeatherDisplay:10.37 W/m2 FEW
15:33 -7.2 °C -8.7 °C 1026.3 hPa SE 4.7 km/h 5.6 km/h 89% 0.0 mm WeatherDisplay:10.37 W/m2 FEW
15:46 -7.2 °C -8.7 °C 1026.0 hPa SE 4.0 km/h 8.0 km/h 89% 0.0 mm WeatherDisplay:10.37 W/m2 FEW
15:51 -7.3 °C -8.8 °C 1026.0 hPa ESE 5.0 km/h 9.3 km/h 89% 0.0 mm WeatherDisplay:10.37 W/m2 FEW
15:56 -7.3 °C -8.8 °C 1026.0 hPa SSE 3.2 km/h 7.4 km/h 89% 0.0 mm WeatherDisplay:10.37 W/m2 FEW
16:04 -7.3 °C -8.8 °C 1026.0 hPa South 1.8 km/h 5.6 km/h 89% 0.0 mm WeatherDisplay:10.37 W/m2 FEW
16:09 -7.3 °C -8.8 °C 1025.6 hPa Calm   3.7 km/h 89% 0.0 mm WeatherDisplay:10.37 W/m2 FEW
16:14 -7.4 °C -8.9 °C 1025.6 hPa Calm     89% 0.0 mm WeatherDisplay:10.37 W/m2 FEW
16:20 -7.4 °C -8.9 °C 1025.6 hPa Calm     89% 0.0 mm WeatherDisplay:10.37 W/m2 FEW
16:25 -7.4 °C -8.9 °C 1025.3 hPa SE 1.9 km/h 5.6 km/h 89% 0.0 mm WeatherDisplay:10.37 W/m2 FEW
16:34 -7.4 °C -8.9 °C 1025.3 hPa SE 2.4 km/h 5.6 km/h 89% 0.0 mm WeatherDisplay:10.37 W/m2 FEW
16:41 -7.4 °C -8.9 °C 1024.9 hPa SSE 1.1 km/h 11.1 km/h 89% 0.0 mm WeatherDisplay:10.37 W/m2 FEW
16:46 -7.4 °C -8.9 °C 1024.9 hPa ESE 3.7 km/h 7.4 km/h 89% 0.0 mm WeatherDisplay:10.37 W/m2 FEW
16:56 -7.4 °C -8.9 °C 1024.9 hPa SSE 1.0 km/h 3.7 km/h 89% 0.0 mm WeatherDisplay:10.37 W/m2 FEW
17:01 -7.4 °C -8.9 °C 1024.9 hPa Calm   3.7 km/h 89% 0.0 mm WeatherDisplay:10.37 W/m2 FEW
17:06 -7.4 °C -8.9 °C 1024.6 hPa SSE 5.6 km/h 14.8 km/h 89% 0.0 mm WeatherDisplay:10.37 W/m2 FEW
17:11 -7.4 °C -8.9 °C 1024.6 hPa SSE 7.4 km/h 13.0 km/h 89% 0.0 mm WeatherDisplay:10.37 W/m2 FEW
17:21 -7.4 °C -8.9 °C 1024.6 hPa East 6.4 km/h 14.8 km/h 89% 0.0 mm WeatherDisplay:10.37 W/m2 FEW
17:29 -7.4 °C -8.9 °C 1024.3 hPa SE 4.5 km/h 11.1 km/h 89% 0.0 mm WeatherDisplay:10.37 W/m2 FEW
17:35 -7.4 °C -8.9 °C 1024.3 hPa SE 3.7 km/h 14.8 km/h 89% 0.0 mm WeatherDisplay:10.37 W/m2 FEW
17:40 -7.4 °C -8.9 °C 1024.3 hPa SE 0.8 km/h 5.6 km/h 89% 0.0 mm WeatherDisplay:10.37 W/m2 FEW
17:47 -7.4 °C -8.9 °C 1024.3 hPa SE 3.1 km/h 5.6 km/h 89% 0.0 mm WeatherDisplay:10.37 W/m2 FEW
17:52 -7.4 °C -9.1 °C 1023.9 hPa ESE 2.3 km/h 5.6 km/h 88% 0.0 mm WeatherDisplay:10.37 W/m2 FEW
17:57 -7.4 °C -8.9 °C 1023.9 hPa SE 2.1 km/h 13.0 km/h 89% 0.0 mm WeatherDisplay:10.37 W/m2 FEW
18:02 -7.4 °C -8.9 °C 1023.9 hPa SSE 6.3 km/h 8.0 km/h 89% 0.0 mm WeatherDisplay:10.37 W/m2 FEW
18:09 -7.4 °C -9.1 °C 1023.6 hPa SE 3.7 km/h 11.1 km/h 88% 0.0 mm WeatherDisplay:10.37 W/m2 FEW
18:15 -7.4 °C -9.1 °C 1023.6 hPa SE 2.9 km/h 5.6 km/h 88% 0.0 mm WeatherDisplay:10.37 W/m2 FEW
18:20 -7.4 °C -9.1 °C 1023.6 hPa SE 2.7 km/h 5.6 km/h 88% 0.0 mm WeatherDisplay:10.37 W/m2 FEW
18:25 -7.4 °C -9.1 °C 1023.6 hPa SE 1.1 km/h 4.8 km/h 88% 0.0 mm WeatherDisplay:10.37 W/m2 FEW
18:30 -7.4 °C -9.1 °C 1023.6 hPa SSE 4.2 km/h 13.0 km/h 88% 0.0 mm WeatherDisplay:10.37 W/m2 FEW
18:35 -7.3 °C -9.0 °C 1023.2 hPa SE 6.1 km/h 9.3 km/h 88% 0.0 mm WeatherDisplay:10.37 W/m2 FEW
18:40 -7.3 °C -9.0 °C 1023.2 hPa SSW 1.6 km/h 5.6 km/h 88% 0.0 mm WeatherDisplay:10.37 W/m2 FEW
18:45 -7.3 °C -8.9 °C 1022.9 hPa ESE 2.7 km/h 5.6 km/h 88% 0.0 mm WeatherDisplay:10.37 W/m2 FEW
18:50 -7.3 °C -8.9 °C 1022.9 hPa South 3.5 km/h 7.4 km/h 88% 0.0 mm WeatherDisplay:10.37 W/m2 FEW
18:55 -7.3 °C -8.9 °C 1022.9 hPa East 11.1 km/h 18.5 km/h 88% 0.0 mm WeatherDisplay:10.37 W/m2 FEW
19:00 -7.3 °C -9.0 °C 1022.6 hPa Calm     88% 0.0 mm WeatherDisplay:10.37 W/m2 FEW
19:05 -7.3 °C -8.9 °C 1022.6 hPa SE 3.1 km/h 7.4 km/h 88% 0.0 mm WeatherDisplay:10.37 W/m2 FEW
19:10 -7.3 °C -9.0 °C 1022.6 hPa SSE 6.4 km/h 18.5 km/h 88% 0.0 mm WeatherDisplay:10.37 W/m2 FEW
19:15 -7.3 °C -9.0 °C 1022.6 hPa SSW 4.5 km/h 7.4 km/h 88% 0.0 mm WeatherDisplay:10.37 W/m2 FEW
19:25 -7.3 °C -9.0 °C 1022.6 hPa East 1.4 km/h 3.7 km/h 88% 0.0 mm WeatherDisplay:10.37 W/m2 FEW
19:30 -7.3 °C -9.0 °C 1022.6 hPa South 3.4 km/h 5.6 km/h 88% 0.0 mm WeatherDisplay:10.37 W/m2 FEW
19:35 -7.3 °C -9.1 °C 1022.2 hPa SE 3.5 km/h 5.6 km/h 87% 0.0 mm WeatherDisplay:10.37 W/m2 FEW
19:40 -7.3 °C -9.1 °C 1022.2 hPa SSW 1.9 km/h 5.6 km/h 87% 0.0 mm WeatherDisplay:10.37 W/m2 FEW
19:45 -7.3 °C -9.0 °C 1022.2 hPa SSE 5.3 km/h 11.1 km/h 88% 0.0 mm WeatherDisplay:10.37 W/m2 FEW
19:50 -7.3 °C -9.0 °C 1022.2 hPa SSW 0.5 km/h 3.7 km/h 88% 0.0 mm WeatherDisplay:10.37 W/m2 FEW
19:55 -7.3 °C -9.0 °C 1022.2 hPa SE 0.5 km/h 5.6 km/h 88% 0.0 mm WeatherDisplay:10.37 W/m2 FEW
20:00 -7.3 °C -9.0 °C 1021.9 hPa ESE 4.2 km/h 14.8 km/h 88% 0.0 mm WeatherDisplay:10.37 W/m2 FEW
20:05 -7.3 °C -9.1 °C 1021.9 hPa SSE 5.5 km/h 13.0 km/h 87% 0.0 mm WeatherDisplay:10.37 W/m2 FEW
20:10 -7.4 °C -9.2 °C 1021.9 hPa SE 7.4 km/h 13.0 km/h 87% 0.0 mm WeatherDisplay:10.37 W/m2 FEW
20:25 -7.4 °C -9.1 °C 1021.6 hPa SE 2.3 km/h 7.4 km/h 88% 0.0 mm WeatherDisplay:10.37 W/m2 FEW
20:33 -7.4 °C -9.1 °C 1021.6 hPa SSW 0.5 km/h 3.7 km/h 88% 0.0 mm WeatherDisplay:10.37 W/m2 FEW
20:38 -7.3 °C -9.0 °C 1021.2 hPa SE 0.2 km/h 5.6 km/h 88% 0.0 mm WeatherDisplay:10.37 W/m2 FEW
20:46 -7.3 °C -9.0 °C 1021.2 hPa SSW 4.2 km/h 14.8 km/h 88% 0.0 mm WeatherDisplay:10.37 W/m2 FEW
20:51 -7.4 °C -9.2 °C 1021.2 hPa Calm     87% 0.0 mm WeatherDisplay:10.37 W/m2 FEW
20:56 -7.4 °C -9.1 °C 1021.2 hPa Calm     88% 0.0 mm WeatherDisplay:10.37 W/m2 FEW
21:06 -7.3 °C -9.0 °C 1020.9 hPa SSE 3.5 km/h 7.4 km/h 88% 0.0 mm WeatherDisplay:10.37 W/m2 FEW
21:11 -7.4 °C -9.1 °C 1020.9 hPa South 4.7 km/h 7.4 km/h 88% 0.0 mm WeatherDisplay:10.37 W/m2 FEW
21:16 -7.4 °C -9.1 °C 1020.9 hPa ESE 4.8 km/h 7.4 km/h 88% 0.0 mm WeatherDisplay:10.37 W/m2 FEW
21:21 -7.4 °C -9.1 °C 1020.9 hPa South 2.1 km/h 8.0 km/h 88% 0.0 mm WeatherDisplay:10.37 W/m2 FEW
21:26 -7.4 °C -9.1 °C 1020.9 hPa SE 1.8 km/h 3.2 km/h 88% 0.0 mm WeatherDisplay:10.37 W/m2 FEW
21:33 -7.4 °C -9.1 °C 1020.5 hPa SE 3.4 km/h 9.3 km/h 88% 0.0 mm WeatherDisplay:10.37 W/m2 FEW
21:39 -7.5 °C -9.2 °C 1020.5 hPa SE 5.1 km/h 16.7 km/h 88% 0.0 mm WeatherDisplay:10.37 W/m2 FEW
21:44 -7.5 °C -9.2 °C 1020.2 hPa SSE 1.3 km/h 5.6 km/h 88% 0.0 mm WeatherDisplay:10.37 W/m2 FEW
21:51 -7.4 °C -9.1 °C 1020.2 hPa South 2.4 km/h 6.4 km/h 88% 0.0 mm WeatherDisplay:10.37 W/m2 FEW
22:01 -7.5 °C -9.2 °C 1020.2 hPa SW 1.9 km/h 11.1 km/h 88% 0.0 mm WeatherDisplay:10.37 W/m2 FEW
22:08 -7.6 °C -9.2 °C 1019.9 hPa South 1.0 km/h 8.0 km/h 88% 0.0 mm WeatherDisplay:10.37 W/m2 FEW
22:13 -7.6 °C -9.2 °C 1019.9 hPa South 7.4 km/h 13.0 km/h 88% 0.0 mm WeatherDisplay:10.37 W/m2 FEW
22:18 -7.6 °C -9.2 °C 1019.9 hPa SE 2.3 km/h 14.5 km/h 88% 0.0 mm WeatherDisplay:10.37 W/m2 FEW
22:23 -7.6 °C -9.3 °C 1019.9 hPa Calm   5.6 km/h 87% 0.0 mm WeatherDisplay:10.37 W/m2 FEW
22:29 -7.6 °C -9.3 °C 1019.5 hPa East 2.3 km/h 5.6 km/h 87% 0.0 mm WeatherDisplay:10.37 W/m2 FEW
22:34 -7.6 °C -9.3 °C 1019.5 hPa SSW 1.8 km/h 7.4 km/h 87% 0.0 mm WeatherDisplay:10.37 W/m2 FEW
22:46 -7.6 °C -9.3 °C 1019.2 hPa Calm   9.3 km/h 87% 0.0 mm WeatherDisplay:10.37 W/m2 FEW
22:48 -7.6 °C -9.3 °C 1019.2 hPa SSE 1.6 km/h 11.1 km/h 87% 0.0 mm WeatherDisplay:10.37 W/m2 FEW
22:49 -7.6 °C -9.3 °C 1019.2 hPa South 2.1 km/h 9.3 km/h 87% 0.0 mm WeatherDisplay:10.37 W/m2 FEW
22:51 -7.6 °C -9.2 °C 1019.2 hPa Calm   7.4 km/h 88% 0.0 mm WeatherDisplay:10.37 W/m2 FEW
22:52 -7.6 °C -9.2 °C 1019.2 hPa SSE 0.5 km/h 3.7 km/h 88% 0.0 mm WeatherDisplay:10.37 W/m2 FEW
22:53 -7.5 °C -9.2 °C 1019.2 hPa ENE 4.0 km/h 9.3 km/h 88% 0.0 mm WeatherDisplay:10.37 W/m2 FEW
22:54 -7.5 °C -9.2 °C 1019.2 hPa ENE 1.6 km/h 9.3 km/h 88% 0.0 mm WeatherDisplay:10.37 W/m2 FEW
22:59 -7.5 °C -9.2 °C 1019.2 hPa South 3.9 km/h 18.5 km/h 88% 0.0 mm WeatherDisplay:10.37 W/m2 FEW
23:00 -7.5 °C -9.2 °C 1019.2 hPa South 1.4 km/h 18.5 km/h 88% 0.0 mm WeatherDisplay:10.37 W/m2 FEW
23:06 -7.5 °C -9.3 °C 1019.2 hPa SE 5.1 km/h 13.0 km/h 87% 0.0 mm WeatherDisplay:10.37 W/m2 FEW
23:07 -7.5 °C -9.3 °C 1019.2 hPa SE 6.0 km/h 13.0 km/h 87% 0.0 mm WeatherDisplay:10.37 W/m2 FEW
23:12 -7.5 °C -9.2 °C 1018.8 hPa ESE 2.1 km/h 5.6 km/h 88% 0.0 mm WeatherDisplay:10.37 W/m2 FEW
23:14 -7.5 °C -9.2 °C 1018.8 hPa SSE 7.2 km/h 9.3 km/h 88% 0.0 mm WeatherDisplay:10.37 W/m2 FEW
23:21 -7.5 °C -9.2 °C 1018.8 hPa Calm     88% 0.0 mm WeatherDisplay:10.37 W/m2 FEW
23:23 -7.5 °C -9.2 °C 1018.5 hPa SE 3.4 km/h 3.4 km/h 88% 0.0 mm WeatherDisplay:10.37 W/m2 FEW
23:28 -7.5 °C -9.2 °C 1018.8 hPa SSE 2.9 km/h 7.4 km/h 88% 0.0 mm WeatherDisplay:10.37 W/m2 FEW
23:33 -7.4 °C -9.1 °C 1018.5 hPa SSE 2.6 km/h 3.2 km/h 88% 0.0 mm WeatherDisplay:10.37 W/m2 FEW
23:40 -7.4 °C -9.1 °C 1018.5 hPa SSE 5.6 km/h 14.8 km/h 88% 0.0 mm WeatherDisplay:10.37 W/m2 FEW
23:50 -7.5 °C -9.2 °C 1018.2 hPa SSE 3.9 km/h 7.4 km/h 88% 0.0 mm WeatherDisplay:10.37 W/m2 FEW
23:58 -7.5 °C -9.3 °C 1018.2 hPa SSE 6.6 km/h 13.0 km/h 87% 0.0 mm WeatherDisplay:10.37 W/m2 FEW
Tuulensuunkaari, Veikkola, Suomi
Compliments of Weather Underground - 2.25 mb